createdAt,value
2018-12-27T00:00:40.696Z,80.18
2018-12-27T00:01:40.659Z,80.46
2018-12-27T00:02:40.597Z,79.99
2018-12-27T00:03:40.563Z,79.90
2018-12-27T00:04:40.523Z,80.94
2018-12-27T00:05:40.466Z,80.84
2018-12-27T00:06:40.441Z,80.84
2018-12-27T00:07:40.389Z,80.94
2018-12-27T00:08:40.358Z,80.65
2018-12-27T00:09:40.301Z,80.94
2018-12-27T00:10:40.262Z,80.65
2018-12-27T00:11:40.218Z,80.75
2018-12-27T00:12:40.249Z,80.84
2018-12-27T00:13:40.132Z,80.65
2018-12-27T00:14:40.097Z,80.84
2018-12-27T00:15:40.079Z,81.04
2018-12-27T00:16:40.058Z,81.04
2018-12-27T00:17:39.955Z,79.80
2018-12-27T00:18:39.916Z,80.18
2018-12-27T00:19:39.882Z,80.27
2018-12-27T00:20:39.876Z,80.46
2018-12-27T00:21:39.821Z,80.37
2018-12-27T00:22:39.911Z,80.65
2018-12-27T00:23:39.737Z,80.18
2018-12-27T00:24:39.677Z,80.18
2018-12-27T00:25:39.631Z,79.90
2018-12-27T00:26:39.614Z,80.18
2018-12-27T00:27:39.567Z,80.27
2018-12-27T00:28:39.516Z,80.18
2018-12-27T00:29:39.467Z,79.80
2018-12-27T00:30:39.428Z,79.99
2018-12-27T00:31:39.399Z,80.08
2018-12-27T00:32:39.341Z,80.08
2018-12-27T00:33:39.310Z,79.99
2018-12-27T00:34:39.257Z,79.99
2018-12-27T00:35:39.224Z,79.61
2018-12-27T00:36:39.165Z,80.08
2018-12-27T00:37:39.121Z,79.90
2018-12-27T00:38:39.085Z,80.18
2018-12-27T00:39:39.037Z,79.99
2018-12-27T00:40:38.993Z,79.61
2018-12-27T00:41:38.976Z,79.71
2018-12-27T00:42:38.926Z,79.71
2018-12-27T00:43:38.884Z,79.71
2018-12-27T00:44:38.825Z,79.23
2018-12-27T00:45:38.785Z,79.23
2018-12-27T00:46:38.747Z,79.71
2018-12-27T00:47:38.724Z,80.18
2018-12-27T00:48:38.659Z,79.80
2018-12-27T00:49:38.636Z,80.75
2018-12-27T00:50:38.574Z,80.94
2018-12-27T00:51:38.548Z,80.27
2018-12-27T00:52:38.517Z,79.99
2018-12-27T00:53:38.462Z,79.80
2018-12-27T00:54:38.435Z,79.23
2018-12-27T00:55:38.361Z,79.52
2018-12-27T00:56:38.350Z,78.75
2018-12-27T00:57:38.272Z,79.04
2018-12-27T00:58:38.271Z,78.85
2018-12-27T00:59:38.223Z,78.28
2018-12-27T01:00:38.151Z,77.81
2018-12-27T01:01:38.120Z,77.24
2018-12-27T01:02:38.077Z,77.14
2018-12-27T01:03:38.026Z,77.33
2018-12-27T01:04:38.091Z,77.33
2018-12-27T01:05:37.950Z,77.14
2018-12-27T01:06:37.932Z,77.24
2018-12-27T01:07:37.871Z,77.14
2018-12-27T01:08:37.838Z,76.95
2018-12-27T01:09:37.795Z,77.43
2018-12-27T01:10:37.756Z,77.33
2018-12-27T01:11:37.704Z,77.24
2018-12-27T01:12:37.643Z,77.24
2018-12-27T01:13:37.649Z,77.14
2018-12-27T01:14:37.554Z,77.14
2018-12-27T01:15:37.569Z,76.48
2018-12-27T01:16:37.487Z,76.39
2018-12-27T01:17:37.458Z,76.48
2018-12-27T01:18:37.401Z,76.57
2018-12-27T01:19:37.371Z,76.39
2018-12-27T01:20:37.305Z,76.67
2018-12-27T01:21:37.266Z,76.39
2018-12-27T01:22:37.229Z,76.95
2018-12-27T01:23:37.201Z,77.24
2018-12-27T01:24:37.148Z,76.86
2018-12-27T01:25:37.118Z,76.86
2018-12-27T01:26:37.077Z,76.76
2018-12-27T01:27:37.101Z,76.67
2018-12-27T01:28:36.984Z,76.57
2018-12-27T01:29:36.938Z,77.52
2018-12-27T01:30:36.900Z,77.24
2018-12-27T01:31:36.872Z,77.05
2018-12-27T01:32:36.816Z,76.86
2018-12-27T01:33:36.774Z,77.24
2018-12-27T01:34:36.727Z,76.57
2018-12-27T01:35:36.765Z,77.05
2018-12-27T01:36:36.669Z,77.05
2018-12-27T01:37:36.607Z,77.05
2018-12-27T01:38:36.562Z,76.29
2018-12-27T01:39:36.540Z,76.20
2018-12-27T01:40:36.552Z,76.10
2018-12-27T01:41:36.431Z,76.39
2018-12-27T01:42:36.445Z,76.39
2018-12-27T01:43:36.347Z,76.39
2018-12-27T01:44:36.290Z,76.86
2018-12-27T01:45:36.271Z,77.05
2018-12-27T01:46:36.277Z,76.76
2018-12-27T01:47:36.184Z,77.43
2018-12-27T01:48:36.142Z,77.05
2018-12-27T01:49:36.102Z,77.43
2018-12-27T01:50:36.060Z,77.43
2018-12-27T01:51:36.034Z,77.33
2018-12-27T01:52:35.947Z,77.62
2018-12-27T01:53:35.976Z,77.43
2018-12-27T01:54:35.916Z,77.62
2018-12-27T01:55:35.839Z,77.81
2018-12-27T01:56:35.833Z,78.19
2018-12-27T01:57:35.788Z,78.75
2018-12-27T01:58:35.729Z,79.52
2018-12-27T01:59:35.699Z,79.80
2018-12-27T02:00:35.641Z,79.23
2018-12-27T02:01:35.583Z,79.42
2018-12-27T02:02:35.569Z,79.42
2018-12-27T02:03:35.494Z,79.52
2018-12-27T02:04:35.468Z,79.99
2018-12-27T02:05:35.405Z,80.94
2018-12-27T02:06:35.402Z,81.04
2018-12-27T02:07:35.434Z,81.60
2018-12-27T02:08:35.305Z,82.08
2018-12-27T02:09:35.240Z,82.08
2018-12-27T02:10:35.242Z,82.36
2018-12-27T02:11:35.174Z,82.08
2018-12-27T02:12:35.127Z,81.98
2018-12-27T02:13:35.089Z,82.36
2018-12-27T02:14:35.047Z,83.03
2018-12-27T02:15:34.984Z,82.46
2018-12-27T02:16:34.986Z,82.84
2018-12-27T02:17:34.990Z,82.93
2018-12-27T02:18:34.875Z,83.50
2018-12-27T02:19:34.837Z,83.59
2018-12-27T02:20:34.808Z,84.17
2018-12-27T02:21:34.771Z,84.07
2018-12-27T02:22:34.720Z,83.97
2018-12-27T02:23:34.653Z,84.92
2018-12-27T02:24:34.684Z,85.40
2018-12-27T02:25:34.585Z,85.49
2018-12-27T02:26:34.534Z,85.40
2018-12-27T02:27:34.490Z,87.58
2018-12-27T02:28:34.434Z,87.68
2018-12-27T02:29:34.418Z,87.96
2018-12-27T02:30:34.370Z,87.77
2018-12-27T02:31:34.334Z,88.24
2018-12-27T02:32:34.270Z,88.81
2018-12-27T02:33:35.578Z,89.10
2018-12-27T02:34:34.210Z,89.10
2018-12-27T02:35:34.158Z,89.48
2018-12-27T02:36:34.106Z,89.00
2018-12-27T02:37:34.091Z,89.48
2018-12-27T02:38:34.030Z,89.20
2018-12-27T02:39:34.002Z,88.53
2018-12-27T02:40:34.751Z,88.72
2018-12-27T02:41:33.903Z,88.24
2018-12-27T02:42:33.858Z,88.81
2018-12-27T02:43:33.817Z,89.39
2018-12-27T02:44:33.758Z,88.43
2018-12-27T02:45:33.755Z,89.00
2018-12-27T02:46:33.696Z,88.81
2018-12-27T02:47:33.632Z,88.34
2018-12-27T02:48:33.629Z,87.87
2018-12-27T02:49:33.587Z,88.06
2018-12-27T02:50:33.531Z,88.06
2018-12-27T02:51:33.468Z,87.68
2018-12-27T02:52:33.450Z,87.11
2018-12-27T02:53:33.398Z,86.82
2018-12-27T02:54:33.377Z,86.44
2018-12-27T02:55:33.320Z,86.25
2018-12-27T02:56:33.253Z,85.87
2018-12-27T02:57:33.224Z,86.44
2018-12-27T02:58:33.196Z,86.72
2018-12-27T02:59:33.154Z,86.82
2018-12-27T03:00:33.092Z,86.25
2018-12-27T03:01:33.052Z,85.87
2018-12-27T03:02:32.999Z,85.49
2018-12-27T03:03:32.966Z,84.92
2018-12-27T03:04:32.942Z,85.11
2018-12-27T03:05:32.914Z,85.40
2018-12-27T03:06:32.842Z,85.40
2018-12-27T03:07:32.811Z,86.25
2018-12-27T03:08:32.759Z,87.11
2018-12-27T03:09:32.718Z,88.43
2018-12-27T03:10:32.685Z,88.91
2018-12-27T03:11:32.639Z,89.48
2018-12-27T03:12:32.591Z,91.66
2018-12-27T03:13:32.565Z,92.61
2018-12-27T03:14:32.518Z,92.90
2018-12-27T03:15:32.497Z,93.84
2018-12-27T03:16:32.426Z,93.65
2018-12-27T03:17:32.380Z,94.60
2018-12-27T03:18:32.331Z,93.84
2018-12-27T03:19:32.395Z,93.37
2018-12-27T03:20:32.258Z,92.71
2018-12-27T03:21:32.204Z,91.75
2018-12-27T03:22:32.162Z,91.94
2018-12-27T03:23:32.129Z,92.23
2018-12-27T03:24:32.112Z,92.71
2018-12-27T03:25:32.044Z,92.71
2018-12-27T03:26:31.983Z,93.08
2018-12-27T03:27:31.966Z,92.61
2018-12-27T03:28:31.930Z,92.33
2018-12-27T03:29:31.872Z,92.42
2018-12-27T03:30:31.833Z,92.61
2018-12-27T03:31:31.781Z,92.04
2018-12-27T03:32:31.746Z,91.19
2018-12-27T03:33:31.703Z,91.66
2018-12-27T03:34:31.677Z,92.14
2018-12-27T03:35:31.623Z,91.90
2018-12-27T03:36:31.609Z,91.99
2018-12-27T03:37:31.531Z,90.86
2018-12-27T03:38:31.502Z,90.95
2018-12-27T03:39:31.460Z,90.86
2018-12-27T03:40:31.417Z,91.42
2018-12-27T03:41:31.356Z,90.95
2018-12-27T03:42:31.313Z,90.76
2018-12-27T03:43:31.273Z,91.42
2018-12-27T03:44:31.243Z,91.61
2018-12-27T03:45:31.200Z,90.19
2018-12-27T03:46:31.160Z,88.87
2018-12-27T03:47:31.114Z,89.34
2018-12-27T03:48:31.082Z,88.68
2018-12-27T03:49:31.041Z,87.25
2018-12-27T03:50:30.992Z,84.98
2018-12-27T03:51:30.942Z,83.94
2018-12-27T03:52:30.905Z,83.84
2018-12-27T03:53:30.860Z,83.46
2018-12-27T03:54:30.819Z,83.94
2018-12-27T03:55:30.815Z,83.74
2018-12-27T03:56:30.736Z,83.46
2018-12-27T03:57:30.691Z,83.08
2018-12-27T03:58:30.642Z,84.12
2018-12-27T03:59:30.600Z,83.84
2018-12-27T04:00:30.572Z,83.17
2018-12-27T04:01:30.552Z,83.46
2018-12-27T04:02:30.462Z,83.08
2018-12-27T04:03:30.428Z,82.89
2018-12-27T04:04:30.402Z,82.23
2018-12-27T04:05:30.329Z,82.28
2018-12-27T04:06:30.320Z,82.18
2018-12-27T04:07:30.302Z,81.43
2018-12-27T04:08:30.224Z,81.24
2018-12-27T04:09:30.169Z,81.62
2018-12-27T04:10:30.143Z,80.86
2018-12-27T04:11:30.095Z,81.05
2018-12-27T04:12:30.054Z,81.14
2018-12-27T04:13:30.018Z,80.86
2018-12-27T04:14:29.962Z,81.52
2018-12-27T04:15:29.914Z,82.28
2018-12-27T04:16:29.882Z,82.28
2018-12-27T04:17:29.832Z,80.95
2018-12-27T04:18:29.782Z,80.00
2018-12-27T04:19:29.745Z,80.38
2018-12-27T04:20:29.688Z,80.86
2018-12-27T04:21:29.653Z,80.29
2018-12-27T04:22:29.615Z,80.48
2018-12-27T04:23:29.566Z,81.52
2018-12-27T04:24:29.551Z,81.24
2018-12-27T04:25:29.501Z,81.05
2018-12-27T04:26:29.454Z,80.48
2018-12-27T04:27:29.420Z,80.48
2018-12-27T04:28:29.374Z,80.67
2018-12-27T04:29:29.316Z,80.48
2018-12-27T04:30:29.309Z,80.10
2018-12-27T04:31:29.240Z,79.53
2018-12-27T04:32:29.184Z,79.44
2018-12-27T04:33:29.142Z,78.58
2018-12-27T04:34:29.125Z,78.20
2018-12-27T04:35:29.062Z,78.67
2018-12-27T04:36:29.013Z,79.68
2018-12-27T04:37:28.964Z,80.63
2018-12-27T04:38:28.932Z,80.72
2018-12-27T04:39:28.881Z,81.10
2018-12-27T04:40:28.863Z,81.48
2018-12-27T04:41:28.841Z,82.24
2018-12-27T04:42:28.774Z,81.67
2018-12-27T04:43:28.747Z,81.67
2018-12-27T04:44:28.668Z,81.95
2018-12-27T04:45:28.630Z,80.91
2018-12-27T04:46:28.628Z,80.91
2018-12-27T04:47:28.537Z,78.64
2018-12-27T04:48:28.489Z,76.36
2018-12-27T04:49:28.465Z,74.66
2018-12-27T04:50:28.414Z,73.99
2018-12-27T04:51:28.374Z,74.37
2018-12-27T04:52:28.324Z,75.51
2018-12-27T04:53:28.274Z,76.08
2018-12-27T04:54:28.222Z,75.60
2018-12-27T04:55:28.219Z,74.95
2018-12-27T04:56:28.140Z,74.56
2018-12-27T04:57:28.107Z,75.51
2018-12-27T04:58:28.078Z,75.89
2018-12-27T04:59:28.009Z,76.36
2018-12-27T05:00:27.964Z,76.17
2018-12-27T05:01:27.965Z,76.08
2018-12-27T05:02:27.872Z,75.70
2018-12-27T05:03:27.850Z,74.47
2018-12-27T05:04:27.800Z,73.52
2018-12-27T05:05:27.783Z,73.33
2018-12-27T05:06:27.708Z,72.77
2018-12-27T05:07:27.684Z,73.24
2018-12-27T05:08:27.631Z,73.52
2018-12-27T05:09:27.596Z,74.09
2018-12-27T05:10:27.542Z,74.09
2018-12-27T05:11:27.505Z,74.66
2018-12-27T05:12:27.464Z,74.37
2018-12-27T05:13:27.408Z,73.90
2018-12-27T05:14:27.360Z,73.24
2018-12-27T05:15:27.329Z,73.14
2018-12-27T05:16:27.281Z,73.43
2018-12-27T05:17:27.264Z,75.04
2018-12-27T05:18:27.207Z,75.23
2018-12-27T05:19:27.163Z,75.04
2018-12-27T05:20:27.085Z,74.81
2018-12-27T05:21:27.059Z,74.90
2018-12-27T05:22:27.017Z,74.52
2018-12-27T05:23:26.979Z,73.43
2018-12-27T05:24:26.926Z,73.24
2018-12-27T05:25:26.880Z,72.29
2018-12-27T05:26:26.851Z,72.38
2018-12-27T05:27:26.805Z,72.29
2018-12-27T05:28:26.753Z,72.57
2018-12-27T05:29:26.701Z,73.20
2018-12-27T05:30:26.662Z,73.77
2018-12-27T05:31:26.620Z,74.15
2018-12-27T05:32:26.567Z,74.15
2018-12-27T05:33:26.545Z,73.96
2018-12-27T05:34:26.618Z,73.96
2018-12-27T05:35:26.439Z,73.49
2018-12-27T05:36:26.405Z,73.58
2018-12-27T05:37:26.399Z,73.77
2018-12-27T05:38:26.313Z,73.49
2018-12-27T05:39:26.266Z,73.68
2018-12-27T05:40:26.216Z,73.30
2018-12-27T05:41:26.190Z,73.49
2018-12-27T05:42:26.119Z,73.49
2018-12-27T05:43:26.106Z,73.30
2018-12-27T05:44:26.050Z,73.58
2018-12-27T05:45:25.986Z,73.39
2018-12-27T05:46:25.951Z,73.68
2018-12-27T05:47:25.930Z,73.86
2018-12-27T05:48:25.885Z,73.96
2018-12-27T05:49:25.818Z,73.49
2018-12-27T05:50:25.781Z,73.20
2018-12-27T05:51:25.747Z,72.73
2018-12-27T05:52:25.691Z,72.34
2018-12-27T05:53:25.620Z,72.44
2018-12-27T05:54:25.607Z,72.34
2018-12-27T05:55:25.546Z,72.73
2018-12-27T05:56:25.514Z,72.34
2018-12-27T05:57:25.581Z,72.34
2018-12-27T05:58:25.428Z,72.44
2018-12-27T05:59:25.389Z,72.53
2018-12-27T06:00:25.347Z,72.73
2018-12-27T06:01:25.294Z,73.30
2018-12-27T06:02:25.243Z,73.01
2018-12-27T06:03:25.227Z,72.73
2018-12-27T06:04:25.196Z,72.73
2018-12-27T06:05:25.192Z,72.73
2018-12-27T06:06:25.063Z,72.82
2018-12-27T06:07:25.059Z,72.82
2018-12-27T06:08:25.016Z,72.25
2018-12-27T06:09:24.971Z,72.34
2018-12-27T06:10:24.921Z,72.25
2018-12-27T06:11:24.883Z,72.73
2018-12-27T06:12:24.851Z,72.63
2018-12-27T06:13:24.765Z,72.82
2018-12-27T06:14:24.726Z,72.34
2018-12-27T06:15:26.233Z,72.63
2018-12-27T06:16:24.616Z,72.29
2018-12-27T06:17:24.606Z,72.57
2018-12-27T06:18:24.549Z,72.57
2018-12-27T06:19:24.509Z,72.16
2018-12-27T06:20:24.488Z,72.77
2018-12-27T06:21:24.403Z,72.57
2018-12-27T06:22:24.383Z,72.29
2018-12-27T06:23:24.319Z,72.44
2018-12-27T06:24:24.275Z,72.53
2018-12-27T06:25:24.234Z,72.25
2018-12-27T06:26:24.211Z,71.91
2018-12-27T06:27:24.175Z,72.06
2018-12-27T06:28:24.102Z,72.44
2018-12-27T06:29:24.048Z,72.44
2018-12-27T06:30:24.053Z,72.44
2018-12-27T06:31:23.987Z,72.25
2018-12-27T06:32:23.943Z,72.53
2018-12-27T06:33:23.876Z,72.53
2018-12-27T06:34:23.877Z,72.25
2018-12-27T06:35:23.801Z,72.53
2018-12-27T06:36:23.778Z,72.34
2018-12-27T06:37:23.716Z,72.53
2018-12-27T06:38:23.791Z,72.63
2018-12-27T06:39:23.610Z,72.63
2018-12-27T06:40:23.592Z,72.73
2018-12-27T06:41:23.523Z,71.78
2018-12-27T06:42:23.499Z,71.88
2018-12-27T06:43:23.434Z,71.59
2018-12-27T06:44:23.396Z,71.50
2018-12-27T06:45:23.366Z,71.62
2018-12-27T06:46:23.306Z,71.59
2018-12-27T06:47:23.282Z,72.34
2018-12-27T06:48:23.236Z,71.53
2018-12-27T06:49:23.212Z,71.62
2018-12-27T06:50:23.158Z,71.69
2018-12-27T06:51:23.099Z,71.62
2018-12-27T06:52:23.076Z,71.53
2018-12-27T06:53:23.008Z,70.78
2018-12-27T06:54:22.975Z,70.87
2018-12-27T06:55:22.926Z,71.15
2018-12-27T06:56:22.882Z,70.97
2018-12-27T06:57:22.842Z,70.87
2018-12-27T06:58:22.783Z,70.97
2018-12-27T06:59:22.742Z,70.49
2018-12-27T07:00:22.711Z,70.20
2018-12-27T07:01:22.667Z,71.06
2018-12-27T07:02:22.637Z,70.78
2018-12-27T07:03:22.586Z,71.15
2018-12-27T07:04:22.529Z,71.15
2018-12-27T07:05:22.479Z,70.78
2018-12-27T07:06:22.451Z,71.34
2018-12-27T07:07:22.408Z,70.78
2018-12-27T07:08:22.454Z,70.78
2018-12-27T07:09:22.311Z,71.15
2018-12-27T07:10:22.297Z,70.87
2018-12-27T07:11:22.207Z,71.06
2018-12-27T07:12:22.335Z,71.15
2018-12-27T07:13:22.141Z,71.34
2018-12-27T07:14:22.144Z,71.25
2018-12-27T07:15:22.048Z,71.06
2018-12-27T07:16:22.007Z,70.87
2018-12-27T07:17:21.975Z,70.78
2018-12-27T07:18:21.936Z,70.20
2018-12-27T07:19:21.862Z,70.39
2018-12-27T07:20:21.840Z,70.68
2018-12-27T07:21:21.828Z,71.15
2018-12-27T07:22:21.771Z,70.78
2018-12-27T07:23:21.694Z,70.49
2018-12-27T07:24:21.668Z,70.68
2018-12-27T07:25:21.647Z,70.11
2018-12-27T07:26:21.560Z,70.39
2018-12-27T07:27:21.507Z,70.20
2018-12-27T07:28:21.487Z,70.20
2018-12-27T07:29:21.465Z,70.30
2018-12-27T07:30:21.377Z,70.20
2018-12-27T07:31:21.339Z,70.49
2018-12-27T07:32:21.336Z,70.53
2018-12-27T07:33:21.249Z,70.62
2018-12-27T07:34:21.238Z,70.78
2018-12-27T07:35:21.170Z,70.39
2018-12-27T07:36:21.134Z,70.30
2018-12-27T07:37:21.088Z,70.34
2018-12-27T07:38:21.056Z,70.24
2018-12-27T07:39:21.026Z,70.34
2018-12-27T07:40:20.998Z,70.05
2018-12-27T07:41:20.929Z,69.86
2018-12-27T07:42:20.864Z,69.67
2018-12-27T07:43:20.857Z,70.34
2018-12-27T07:44:20.784Z,70.43
2018-12-27T07:45:20.743Z,70.43
2018-12-27T07:46:20.695Z,70.15
2018-12-27T07:47:20.648Z,70.15
2018-12-27T07:48:20.621Z,70.24
2018-12-27T07:49:20.567Z,70.15
2018-12-27T07:50:20.535Z,70.43
2018-12-27T07:51:20.483Z,70.43
2018-12-27T07:52:20.454Z,70.24
2018-12-27T07:53:20.417Z,70.43
2018-12-27T07:54:20.340Z,70.53
2018-12-27T07:55:20.317Z,70.24
2018-12-27T07:56:20.307Z,69.77
2018-12-27T07:57:20.222Z,69.86
2018-12-27T07:58:20.185Z,70.15
2018-12-27T07:59:20.193Z,70.34
2018-12-27T08:00:20.079Z,70.05
2018-12-27T08:01:20.071Z,70.05
2018-12-27T08:02:19.998Z,70.53
2018-12-27T08:03:19.954Z,70.34
2018-12-27T08:04:19.953Z,70.34
2018-12-27T08:05:19.882Z,70.24
2018-12-27T08:06:19.828Z,70.34
2018-12-27T08:07:19.807Z,70.43
2018-12-27T08:08:19.758Z,70.34
2018-12-27T08:09:19.697Z,70.43
2018-12-27T08:10:19.661Z,70.62
2018-12-27T08:11:19.621Z,71.19
2018-12-27T08:12:19.572Z,71.19
2018-12-27T08:13:19.535Z,70.72
2018-12-27T08:14:19.498Z,71.09
2018-12-27T08:15:19.445Z,71.76
2018-12-27T08:16:19.408Z,72.52
2018-12-27T08:17:19.373Z,73.94
2018-12-27T08:18:19.314Z,73.75
2018-12-27T08:19:19.267Z,74.41
2018-12-27T08:20:19.226Z,75.74
2018-12-27T08:21:19.190Z,75.74
2018-12-27T08:22:19.141Z,75.64
2018-12-27T08:23:19.107Z,75.64
2018-12-27T08:24:19.054Z,76.03
2018-12-27T08:25:19.013Z,75.93
2018-12-27T08:26:18.960Z,73.65
2018-12-27T08:27:18.991Z,73.75
2018-12-27T08:28:18.893Z,72.89
2018-12-27T09:09:30.366Z,76.73
2018-12-27T09:10:30.371Z,76.82
2018-12-27T09:11:30.235Z,78.05
2018-12-27T09:12:30.200Z,77.96
2018-12-27T09:13:30.168Z,77.67
2018-12-27T09:14:30.137Z,79.47
2018-12-27T09:15:30.074Z,80.62
2018-12-27T09:16:30.070Z,77.20
2018-12-27T09:17:30.072Z,77.11
2018-12-27T09:18:29.926Z,79.57
2018-12-27T09:19:29.884Z,81.47
2018-12-27T09:20:29.857Z,79.76
2018-12-27T09:21:29.809Z,79.28
2018-12-27T09:22:29.757Z,77.77
2018-12-27T09:23:29.726Z,79.42
2018-12-27T09:24:29.663Z,81.41
2018-12-27T09:25:29.641Z,83.78
2018-12-27T09:26:29.611Z,85.59
2018-12-27T09:27:29.549Z,89.39
2018-12-27T09:28:29.514Z,88.72
2018-12-27T09:29:29.480Z,90.05
2018-12-27T09:30:29.441Z,92.99
2018-12-27T09:31:29.377Z,99.99
2018-12-27T09:32:29.336Z,99.99
2018-12-27T09:33:29.296Z,99.99
2018-12-27T09:34:29.270Z,99.99
2018-12-27T09:35:29.215Z,99.99
2018-12-27T09:36:29.171Z,99.99
2018-12-27T09:37:29.210Z,99.99
2018-12-27T09:38:29.091Z,99.99
2018-12-27T09:39:29.042Z,99.99
2018-12-27T09:40:29.038Z,99.99
2018-12-27T09:41:28.963Z,99.99
2018-12-27T09:42:28.951Z,99.99
2018-12-27T09:43:28.881Z,99.99
2018-12-27T09:44:28.852Z,99.99
2018-12-27T09:45:28.818Z,99.99
2018-12-27T09:46:28.777Z,99.99
2018-12-27T09:47:28.725Z,99.99
2018-12-27T09:48:28.707Z,99.99
2018-12-27T09:49:28.684Z,99.99
2018-12-27T09:50:28.626Z,99.99
2018-12-27T09:51:28.687Z,99.99
2018-12-27T09:52:28.579Z,99.99
2018-12-27T09:53:28.515Z,99.99
2018-12-27T09:54:28.505Z,99.99
2018-12-27T09:55:28.454Z,99.99
2018-12-27T09:56:28.424Z,99.99
2018-12-27T09:57:28.381Z,99.99
2018-12-27T09:58:28.346Z,99.99
2018-12-27T09:59:28.303Z,99.99
2018-12-27T10:00:28.297Z,99.99
2018-12-27T10:01:28.230Z,99.99
2018-12-27T10:02:28.228Z,99.99
2018-12-27T10:03:28.181Z,99.99
2018-12-27T10:04:28.152Z,99.99
2018-12-27T10:05:33.892Z,99.99
2018-12-27T10:06:28.095Z,99.99
2018-12-27T10:07:28.049Z,99.99
2018-12-27T10:08:28.020Z,99.99
2018-12-27T10:09:28.002Z,99.99
2018-12-27T10:10:27.954Z,99.99
2018-12-27T10:11:27.936Z,99.99
2018-12-27T10:12:27.875Z,99.99
2018-12-27T10:13:27.856Z,99.99
2018-12-27T10:14:27.836Z,99.99
2018-12-27T10:15:27.837Z,99.99
2018-12-27T10:16:27.751Z,99.99
2018-12-27T10:17:27.840Z,99.99
2018-12-27T10:18:27.696Z,99.99
2018-12-27T10:19:27.682Z,99.99
2018-12-27T10:20:27.644Z,99.99
2018-12-27T10:21:27.589Z,99.99
2018-12-27T10:22:27.582Z,99.99
2018-12-27T10:23:27.540Z,97.56
2018-12-27T10:24:27.509Z,96.99
2018-12-27T10:25:27.468Z,96.94
2018-12-27T10:26:27.515Z,97.80
2018-12-27T10:27:27.440Z,98.66
2018-12-27T10:28:27.414Z,99.80
2018-12-27T10:29:28.037Z,98.57
2018-12-27T10:30:27.341Z,98.66
2018-12-27T10:31:27.301Z,99.14
2018-12-27T10:32:27.276Z,97.99
2018-12-27T10:33:27.259Z,99.37
2018-12-27T10:34:27.226Z,99.99
2018-12-27T10:35:27.217Z,99.99
2018-12-27T10:36:27.198Z,99.99
2018-12-27T10:37:27.141Z,99.99
2018-12-27T10:38:27.123Z,99.99
2018-12-27T10:39:27.071Z,99.99
2018-12-27T10:40:27.042Z,99.99
2018-12-27T10:41:27.034Z,99.99
2018-12-27T10:42:27.037Z,99.99
2018-12-27T10:43:27.034Z,99.99
2018-12-27T10:44:26.919Z,99.99
2018-12-27T10:45:26.889Z,99.99
2018-12-27T10:46:26.884Z,99.99
2018-12-27T10:47:26.833Z,99.99
2018-12-27T10:48:26.813Z,99.99
2018-12-27T10:49:26.793Z,99.99
2018-12-27T10:50:26.776Z,99.33
2018-12-27T10:51:26.724Z,97.37
2018-12-27T10:52:26.708Z,98.90
2018-12-27T10:53:26.712Z,99.99
2018-12-27T10:54:26.729Z,99.99
2018-12-27T10:55:26.619Z,99.99
2018-12-27T10:56:26.626Z,99.99
2018-12-27T10:57:26.708Z,99.99
2018-12-27T10:58:26.647Z,99.99
2018-12-27T10:59:26.535Z,99.99
2018-12-27T11:00:26.472Z,99.99
2018-12-27T11:01:26.463Z,99.76
2018-12-27T11:02:26.415Z,99.99
2018-12-27T11:03:30.510Z,99.99
2018-12-27T11:04:26.360Z,99.99
2018-12-27T11:05:26.326Z,99.99
2018-12-27T11:06:26.302Z,99.99
2018-12-27T11:07:26.298Z,99.99
2018-12-27T11:08:26.293Z,99.99
2018-12-27T11:09:26.309Z,99.99
2018-12-27T11:10:26.226Z,99.99
2018-12-27T11:11:26.173Z,99.99
2018-12-27T11:12:26.136Z,99.99
2018-12-27T11:13:26.173Z,99.99
2018-12-27T11:14:26.092Z,99.99
2018-12-27T11:15:26.059Z,99.99
2018-12-27T11:16:26.027Z,99.99
2018-12-27T11:17:25.991Z,99.99
2018-12-27T11:18:25.965Z,99.99
2018-12-27T11:19:25.943Z,99.99
2018-12-27T11:20:25.893Z,99.99
2018-12-27T11:21:25.876Z,99.99
2018-12-27T11:22:25.846Z,99.99
2018-12-27T11:23:25.810Z,99.99
2018-12-27T11:24:25.799Z,99.99
2018-12-27T11:25:25.768Z,99.99
2018-12-27T11:26:25.737Z,99.99
2018-12-27T11:27:25.721Z,99.99
2018-12-27T11:28:25.677Z,99.99
2018-12-27T11:29:25.640Z,99.99
2018-12-27T11:30:25.661Z,99.99
2018-12-27T11:31:25.588Z,99.99
2018-12-27T11:32:25.554Z,99.99
2018-12-27T11:33:25.544Z,99.99
2018-12-27T11:34:25.503Z,99.99
2018-12-27T11:35:25.469Z,99.99
2018-12-27T11:36:25.431Z,99.99
2018-12-27T11:37:25.438Z,99.99
2018-12-27T11:38:25.387Z,99.99
2018-12-27T11:39:25.339Z,99.99
2018-12-27T11:40:25.316Z,99.99
2018-12-27T11:41:25.300Z,99.99
2018-12-27T11:42:25.271Z,99.99
2018-12-27T11:43:25.227Z,99.99
2018-12-27T11:44:25.223Z,99.99
2018-12-27T11:45:25.150Z,99.99
2018-12-27T11:46:25.139Z,99.99
2018-12-27T11:47:25.096Z,99.99
2018-12-27T11:48:25.091Z,99.99
2018-12-27T11:49:25.031Z,99.99
2018-12-27T11:50:25.021Z,99.99
2018-12-27T11:51:24.974Z,99.99
2018-12-27T11:52:24.976Z,99.99
2018-12-27T11:53:25.011Z,99.99
2018-12-27T11:54:24.887Z,99.99
2018-12-27T11:55:24.932Z,99.99
2018-12-27T11:56:24.811Z,99.99
2018-12-27T11:57:24.792Z,99.99
2018-12-27T11:58:24.755Z,99.99
2018-12-27T11:59:24.774Z,99.99
2018-12-27T12:00:24.749Z,99.99
2018-12-27T12:01:24.730Z,99.99
2018-12-27T12:02:30.913Z,99.99
2018-12-27T12:03:24.589Z,99.99
2018-12-27T12:04:24.558Z,99.99
2018-12-27T12:05:24.502Z,99.99
2018-12-27T12:06:24.445Z,99.99
2018-12-27T12:07:24.417Z,99.99
2018-12-27T12:08:24.377Z,99.99
2018-12-27T12:09:24.443Z,97.83
2018-12-27T12:10:24.353Z,99.83
2018-12-27T12:11:24.304Z,99.99
2018-12-27T12:12:24.269Z,99.99
2018-12-27T12:13:24.202Z,99.99
2018-12-27T12:14:24.175Z,99.99
2018-12-27T12:15:24.118Z,98.59
2018-12-27T12:16:24.080Z,99.99
2018-12-27T12:17:24.047Z,99.99
2018-12-27T12:18:24.010Z,98.59
2018-12-27T12:19:24.000Z,98.69
2018-12-27T12:20:23.931Z,96.22
2018-12-27T12:21:23.905Z,97.45
2018-12-27T12:22:23.852Z,99.99
2018-12-27T12:23:23.807Z,99.99
2018-12-27T12:24:23.766Z,99.99
2018-12-27T12:25:23.774Z,99.99
2018-12-27T12:26:23.730Z,99.99
2018-12-27T12:27:23.661Z,99.99
2018-12-27T12:28:23.617Z,99.99
2018-12-27T12:29:23.578Z,99.99
2018-12-27T12:30:23.523Z,99.99
2018-12-27T12:31:23.528Z,99.99
2018-12-27T12:32:23.473Z,98.02
2018-12-27T12:33:23.421Z,96.98
2018-12-27T12:34:23.370Z,93.65
2018-12-27T12:35:23.362Z,93.37
2018-12-27T12:36:23.296Z,99.99
2018-12-27T12:37:23.254Z,99.99
2018-12-27T12:38:23.232Z,99.99
2018-12-27T12:39:23.172Z,99.99
2018-12-27T12:40:23.122Z,99.99
2018-12-27T12:41:23.098Z,99.99
2018-12-27T12:42:32.935Z,99.35
2018-12-27T12:43:23.008Z,95.08
2018-12-27T12:44:22.967Z,95.75
2018-12-27T12:45:22.919Z,99.99
2018-12-27T12:46:22.891Z,99.26
2018-12-27T12:47:22.849Z,95.55
2018-12-27T12:48:22.838Z,92.04
2018-12-27T12:49:22.759Z,92.90
2018-12-27T12:50:22.812Z,92.90
2018-12-27T12:51:23.251Z,94.32
2018-12-27T12:52:22.670Z,92.90
2018-12-27T12:53:22.628Z,92.04
2018-12-27T12:54:22.596Z,88.90
2018-12-27T12:55:22.541Z,87.76
2018-12-27T12:56:22.503Z,86.53
2018-12-27T12:57:22.569Z,83.87
2018-12-27T12:58:22.413Z,81.68
2018-12-27T12:59:22.360Z,83.01
2018-12-27T13:00:22.339Z,84.44
2018-12-27T13:01:22.296Z,82.54
2018-12-27T13:02:22.235Z,85.01
2018-12-27T13:03:22.195Z,87.67
2018-12-27T13:04:22.156Z,87.48
2018-12-27T13:05:22.122Z,95.08
2018-12-27T13:06:22.081Z,99.50
2018-12-27T13:07:22.058Z,99.97
2018-12-27T13:08:22.007Z,99.99
2018-12-27T13:09:21.985Z,99.40
2018-12-27T13:10:21.921Z,97.88
2018-12-27T13:11:21.879Z,97.27
2018-12-27T13:12:21.819Z,96.55
2018-12-27T13:13:22.686Z,97.92
2018-12-27T13:14:21.747Z,94.60
2018-12-27T13:15:21.725Z,93.70
2018-12-27T13:16:21.660Z,96.65
2018-12-27T13:17:21.626Z,97.45
2018-12-27T13:18:21.600Z,96.26
2018-12-27T13:19:21.536Z,94.74
2018-12-27T13:20:21.506Z,94.46
2018-12-27T13:21:21.465Z,95.41
2018-12-27T13:22:21.425Z,96.08
2018-12-27T13:23:21.393Z,93.41
2018-12-27T13:24:21.362Z,92.94
2018-12-27T13:25:21.328Z,91.99
2018-12-27T13:26:21.258Z,92.46
2018-12-27T13:27:21.242Z,93.60
2018-12-27T13:28:21.166Z,93.27
2018-12-27T13:29:21.135Z,91.85
2018-12-27T13:30:21.091Z,94.65
2018-12-27T13:31:21.051Z,94.27
2018-12-27T13:32:21.027Z,93.79